Latest Weather Observations for Blackwater Airport

IDQ60801

Issued at 6:22 am EST Friday 26 April 2019 (issued every 10 minutes, with the page automatically refreshed every 10 minutes)

About weather observations | Map of weather stations | Latest weather observations for QLD | Other Formats
Station Details ID: 035134 Name: BLACKWATER AIRPORT Lat: -23.60 Lon: 148.81 Height: 192.95 m
Data from the previous 72 hours. | See also: Recent months at Blackwater Airport
Date/Time
EST
Temp
°C
App
Temp
°C
Dew
Point
°C
Rel
Hum
%
Delta-T
°C
Wind Press
QNH
hPa
Press
MSL
hPa
Rain since
9am
mm
Dir  Spd
km/h
Gust
km/h
Spd
kts
Gust
kts
26/06:00am 20.2 22.5 18.5 90 1.1 ENE 4 7 2 4 1015.9 1015.0 4.0
26/05:30am 20.0 23.1 18.7 92 0.8 CALM 0 0 0 0 1015.7 1014.8 4.0
26/05:00am 19.9 21.9 18.7 93 0.8 SSE 6 6 3 3 1015.8 1014.9 4.0
26/04:30am 19.8 22.8 18.5 92 0.8 CALM 0 0 0 0 1015.6 1014.7 4.0
26/04:00am 19.7 21.8 18.2 91 0.9 ESE 4 9 2 5 1015.7 1014.8 4.0
26/03:30am 19.8 21.5 18.1 90 1.1 WSW 6 7 3 4 1015.8 1014.9 4.0
26/03:00am 19.6 20.8 18.3 92 0.8 WSW 9 13 5 7 1015.5 1014.6 4.0
26/02:30am 19.9 22.3 18.0 89 1.2 SE 2 6 1 3 1015.6 1014.7 4.0
26/02:00am 19.2 21.8 17.5 90 1.0 CALM 0 0 0 0 1015.8 1014.9 4.0
26/01:30am 19.6 21.9 17.6 88 1.2 ESE 2 7 1 4 1016.0 1015.1 4.0
26/01:00am 19.9 21.2 17.5 86 1.5 SE 7 11 4 6 1016.4 1015.5 4.0
26/12:30am 19.9 21.7 17.5 86 1.5 SE 4 7 2 4 1016.8 1015.9 4.0
26/12:00am 20.1 20.6 17.5 85 1.6 SE 11 15 6 8 1016.8 1015.9 4.0
 
Date/Time
EST
Temp
°C
App
Temp
°C
Dew
Point
°C
Rel
Hum
%
Delta-T
°C
Wind Press
QNH
hPa
Press
MSL
hPa
Rain since
9am
mm
Dir  Spd
km/h
Gust
km/h
Spd
kts
Gust
kts
25/11:30pm 20.0 20.9 17.6 86 1.5 SSE 9 13 5 7 1017.2 1016.3 4.0
25/11:00pm 20.0 19.6 17.2 84 1.7 SSE 15 22 8 12 1017.3 1016.4 4.0
25/10:30pm 20.1 19.1 17.5 85 1.6 SSE 19 24 10 13 1017.1 1016.2 4.0
25/10:00pm 20.2 19.3 17.8 86 1.5 SSE 19 26 10 14 1017.1 1016.2 4.0
25/09:30pm 20.3 20.0 18.2 88 1.3 SSE 17 24 9 13 1017.4 1016.5 4.0
25/09:00pm 20.1 19.6 17.9 87 1.4 SSE 17 22 9 12 1017.4 1016.5 4.0
25/08:30pm 19.9 19.5 18.0 89 1.2 S 17 24 9 13 1017.3 1016.4 4.0
25/08:00pm 20.1 19.5 18.4 90 1.1 S 19 28 10 15 1017.2 1016.3 4.0
25/07:30pm 20.1 19.3 18.4 90 1.1 SSE 20 26 11 14 1016.9 1016.0 4.0
25/07:00pm 20.1 19.9 18.6 91 0.9 SSE 17 22 9 12 1016.8 1015.9 3.8
25/06:30pm 20.2 20.6 19.0 93 0.8 S 15 20 8 11 1016.4 1015.5 3.6
25/06:00pm 20.2 20.7 19.2 94 0.6 SSE 15 19 8 10 1016.1 1015.2 3.6
25/05:30pm 20.3 20.5 19.3 94 0.6 SSE 17 24 9 13 1015.8 1014.9 2.8
25/05:00pm 20.5 20.7 19.3 93 0.8 SSE 17 24 9 13 1015.7 1014.8 2.2
25/04:30pm 20.8 20.7 19.5 92 0.8 SSE 19 24 10 13 1015.5 1014.6 1.6
25/04:00pm 21.0 21.9 19.3 90 1.1 S 13 17 7 9 1015.2 1014.3 1.6
25/03:30pm 21.5 22.9 19.6 89 1.2 S 11 17 6 9 1015.0 1014.1 1.2
25/03:00pm 21.6 22.6 19.5 88 1.3 S 13 17 7 9 1015.2 1014.3 1.2
25/02:30pm 21.5 22.6 19.6 89 1.2 S 13 19 7 10 1015.1 1014.2 1.2
25/02:00pm 22.1 23.5 19.6 86 1.6 ESE 11 13 6 7 1015.4 1014.5 1.0
25/01:30pm 22.2 23.8 19.2 83 1.9 ESE 9 17 5 9 1015.6 1014.7 1.0
25/01:00pm 22.1 22.9 19.1 83 1.9 ESE 13 24 7 13 1015.8 1014.9 0.8
25/12:30pm 22.8 21.4 17.9 74 3.1 E 22 32 12 17 1016.6 1015.7 0.4
25/12:00pm 23.6 22.6 18.0 71 3.5 ESE 20 33 11 18 1017.0 1016.1 0.4
25/11:30am 23.7 22.4 18.1 71 3.5 ESE 22 35 12 19 1017.3 1016.4 0.4
25/11:00am 23.2 21.6 18.3 74 3.1 ESE 24 37 13 20 1017.7 1016.8 0.4
25/10:30am 22.8 21.8 17.9 74 3.1 E 20 30 11 16 1017.9 1017.0 0.4
25/10:00am 22.0 23.2 19.0 83 1.9 ESE 11 20 6 11 1017.9 1017.0 0.4
25/09:30am 22.3 23.9 18.3 78 2.5 SE 7 15 4 8 1018.0 1017.1 0.0
25/09:00am 21.6 23.0 18.6 83 1.9 SE 9 15 5 8 1017.9 1017.0 4.4
25/08:30am 21.3 22.0 17.9 81 2.1 SSE 11 13 6 7 1017.7 1016.8 4.4
25/08:00am 21.2 21.8 17.8 81 2.1 SSE 11 13 6 7 1017.7 1016.8 4.4
25/07:30am 21.2 22.1 17.6 80 2.2 ESE 9 13 5 7 1017.4 1016.5 4.2
25/07:00am 20.6 22.1 17.6 83 1.9 ESE 6 9 3 5 1017.3 1016.4 4.2
25/06:30am 20.9 21.7 17.3 80 2.2 ESE 9 17 5 9 1017.0 1016.1 4.2
25/06:00am 21.0 20.1 16.8 77 2.6 ESE 17 26 9 14 1016.6 1015.7 4.2
25/05:30am 21.3 21.9 16.9 76 2.7 E 9 24 5 13 1016.6 1015.7 4.2
25/05:00am 20.4 20.8 16.4 78 2.4 SE 9 13 5 7 1016.1 1015.2 4.2
25/04:30am 20.5 20.4 16.1 76 2.7 ESE 11 19 6 10 1016.1 1015.2 4.2
25/04:00am 20.9 18.8 16.3 75 2.8 E 22 32 12 17 1016.2 1015.3 4.2
25/03:30am 20.9 19.6 15.9 73 3.0 ESE 17 26 9 14 1016.0 1015.1 4.2
25/03:00am 21.6 20.4 16.1 71 3.3 ESE 17 28 9 15 1016.1 1015.2 4.2
25/02:30am 21.1 20.6 15.9 72 3.1 ESE 13 20 7 11 1016.2 1015.3 4.2
25/02:00am 21.2 21.6 16.4 74 2.9 SE 9 15 5 8 1016.5 1015.6 4.2
25/01:30am 21.0 20.8 16.6 76 2.7 ESE 13 22 7 12 1016.8 1015.9 4.2
25/01:00am 20.7 21.3 17.7 83 1.9 ESE 11 15 6 8 1017.2 1016.3 4.2
25/12:30am 21.0 20.7 17.4 80 2.2 ESE 15 22 8 12 1017.4 1016.5 4.2
25/12:00am 21.1 20.6 18.7 86 1.5 E 19 24 10 13 1017.7 1016.8 4.0
 
Date/Time
EST
Temp
°C
App
Temp
°C
Dew
Point
°C
Rel
Hum
%
Delta-T
°C
Wind Press
QNH
hPa
Press
MSL
hPa
Rain since
9am
mm
Dir  Spd
km/h
Gust
km/h
Spd
kts
Gust
kts
24/11:30pm 21.3 20.1 18.5 84 1.8 E 22 32 12 17 1017.9 1017.0 4.0
24/11:00pm 21.4 20.3 18.6 84 1.8 E 22 32 12 17 1018.0 1017.1 4.0
24/10:30pm 21.4 20.7 18.6 84 1.8 E 20 32 11 17 1017.9 1017.0 4.0
24/10:00pm 21.3 21.9 18.7 85 1.6 ESE 13 20 7 11 1018.0 1017.1 4.0
24/09:30pm 21.3 20.9 18.9 86 1.5 E 19 28 10 15 1018.0 1017.1 4.0
24/09:00pm 21.3 22.1 19.0 87 1.5 E 13 20 7 11 1018.1 1017.2 3.8
24/08:30pm 21.4 21.8 19.1 87 1.5 E 15 24 8 13 1018.0 1017.1 3.8
24/08:00pm 21.5 20.7 19.2 87 1.5 ENE 22 32 12 17 1017.4 1016.5 3.8
24/07:30pm 21.2 21.8 19.5 90 1.1 NE 15 22 8 12 1017.1 1016.2 3.6
24/07:00pm 21.9 21.6 18.3 80 2.3 NE 17 32 9 17 1017.3 1016.4 0.6
24/06:30pm 24.5 22.3 17.0 63 4.7 NE 24 37 13 20 1015.9 1015.0 0.0
24/06:00pm 25.2 22.3 17.1 60 5.1 E 28 43 15 23 1015.8 1014.9 0.0
24/05:30pm 25.7 23.6 17.1 59 5.4 ENE 24 33 13 18 1015.5 1014.6 0.0
24/05:00pm 26.0 24.6 17.9 61 5.1 E 22 35 12 19 1015.4 1014.5 0.0
24/04:30pm 26.2 24.7 17.6 59 5.4 E 22 32 12 17 1015.3 1014.4 0.0
24/04:00pm 26.5 24.6 17.6 58 5.6 E 24 33 13 18 1015.0 1014.1 0.0
24/03:30pm 26.9 24.9 17.4 56 6.0 E 24 35 13 19 1014.9 1014.0 0.0
24/03:00pm 26.8 24.1 17.6 57 5.8 E 28 37 15 20 1015.0 1014.1 0.0
24/02:45pm 27.1 24.4 17.6 56 6.0 E 28 46 15 25 1015.0 1014.1 0.0
24/02:30pm 26.8 24.7 18.1 59 5.6 E 26 37 14 20 1015.3 1014.4 0.0
24/02:00pm 28.3 26.6 19.0 57 6.0 ENE 26 35 14 19 1015.5 1014.6 0.0
24/01:30pm 26.5 24.0 18.1 60 5.4 E 28 39 15 21 1016.0 1015.1 0.0
24/01:00pm 27.5 26.2 19.0 59 5.5 E 24 37 13 20 1016.4 1015.5 0.0
24/12:30pm 27.3 26.2 19.4 62 5.1 ENE 24 33 13 18 1017.0 1016.1 0.0
24/12:00pm 25.8 23.7 19.0 66 4.4 E 28 37 15 20 1017.4 1016.5 0.0
24/11:30am 25.6 23.5 18.0 63 4.8 ENE 26 43 14 23 1017.7 1016.8 0.0
24/11:00am 25.6 23.6 18.3 64 4.6 ENE 26 41 14 22 1018.1 1017.2 0.0
24/10:30am 24.9 23.1 19.5 72 3.5 E 28 43 15 23 1018.5 1017.6 0.0
24/10:00am 24.4 22.2 18.8 71 3.6 E 28 41 15 22 1018.8 1018.0 0.0
24/09:30am 23.9 21.1 19.0 74 3.1 ENE 32 44 17 24 1018.6 1017.7 0.0
24/09:00am 23.9 21.8 19.0 74 3.1 E 28 35 15 19 1018.8 1018.0 0.2
24/08:30am 23.4 22.1 19.1 77 2.8 E 24 37 13 20 1018.7 1017.9 0.2
24/08:00am 22.5 22.1 19.3 82 2.0 E 20 28 11 15 1018.6 1017.7 0.2
24/07:30am 21.9 22.0 19.1 84 1.8 ESE 17 24 9 13 1018.6 1017.7 0.2
24/07:00am 21.5 21.6 19.1 86 1.5 E 17 24 9 13 1018.0 1017.1 0.2
24/06:30am 21.1 22.7 19.2 89 1.2 ESE 9 15 5 8 1017.9 1017.0 0.2
24/06:00am 20.8 22.1 19.3 91 1.0 E 11 17 6 9 1017.7 1016.8 0.2
24/05:30am 20.8 21.6 19.1 90 1.1 E 13 20 7 11 1017.5 1016.6 0.2
24/05:00am 21.9 21.7 18.5 81 2.1 ESE 17 24 9 13 1017.1 1016.2 0.0
24/04:30am 22.1 22.3 18.5 80 2.3 ESE 15 19 8 10 1017.0 1016.1 0.0
24/04:00am 21.7 21.5 18.5 82 2.0 E 17 20 9 11 1016.8 1015.9 0.0
24/03:30am 22.2 21.6 18.4 79 2.4 E 19 26 10 14 1017.0 1016.1 0.0
24/03:00am 22.1 21.4 18.3 79 2.4 E 19 28 10 15 1017.2 1016.3 0.0
24/02:30am 22.2 22.0 18.4 79 2.4 E 17 28 9 15 1017.6 1016.7 0.0
24/02:00am 21.9 22.5 18.5 81 2.1 E 13 17 7 9 1017.6 1016.7 0.0
24/01:30am 21.4 22.6 18.2 82 2.0 ENE 9 15 5 8 1017.6 1016.7 0.0
24/01:00am 21.4 21.4 18.2 82 2.0 ENE 15 22 8 12 1017.6 1016.7 0.0
24/12:30am 21.1 21.5 18.1 83 1.9 ENE 13 19 7 10 1017.6 1016.7 0.0
24/12:00am 21.4 21.7 18.0 81 2.1 ENE 13 19 7 10 1017.8 1016.9 0.0
 
Date/Time
EST
Temp
°C
App
Temp
°C
Dew
Point
°C
Rel
Hum
%
Delta-T
°C
Wind Press
QNH
hPa
Press
MSL
hPa
Rain since
9am
mm
Dir  Spd
km/h
Gust
km/h
Spd
kts
Gust
kts
23/11:30pm 21.9 21.5 18.1 79 2.4 ENE 17 22 9 12 1018.0 1017.1 0.0
23/11:00pm 22.6 21.6 17.9 75 2.9 ENE 20 33 11 18 1018.3 1017.4 0.0
23/10:30pm 22.7 21.7 17.6 73 3.2 ENE 19 28 10 15 1018.4 1017.5 0.0
23/10:00pm 23.4 22.5 17.8 71 3.5 ENE 19 24 10 13 1018.7 1017.9 0.0
23/09:30pm 23.5 22.8 18.2 72 3.4 E 19 28 10 15 1018.6 1017.7 0.0
23/09:00pm 23.7 22.8 18.1 71 3.5 E 20 26 11 14 1018.7 1017.9 0.0
23/08:30pm 24.6 24.1 17.8 66 4.3 ENE 17 28 9 15 1018.9 1018.1 0.0
23/08:00pm 25.1 23.9 17.6 63 4.7 ENE 20 26 11 14 1018.4 1017.5 0.0
23/07:30pm 25.1 24.9 17.6 63 4.7 E 15 20 8 11 1017.9 1017.0 0.0
23/07:00pm 25.0 25.2 17.7 64 4.6 ESE 13 19 7 10 1017.5 1016.6 0.0
23/06:30pm 25.4 25.1 17.3 61 5.1 ESE 15 20 8 11 1017.0 1016.1 0.0
23/06:00pm 25.8 26.1 16.9 58 5.6 ESE 11 15 6 8 1016.8 1015.9 0.0
23/05:30pm 26.7 26.3 17.2 56 6.0 ESE 15 19 8 10 1016.6 1015.7 0.0
23/05:00pm 26.8 27.1 17.0 55 6.1 E 11 15 6 8 1016.4 1015.5 0.0
23/04:30pm 27.1 26.3 17.0 54 6.3 SE 17 22 9 12 1016.4 1015.5 0.0
23/04:00pm 27.4 26.8 16.7 52 6.7 E 15 26 8 14 1016.3 1015.4 0.0
23/03:30pm 27.5 26.5 16.5 51 6.9 ENE 17 26 9 14 1016.2 1015.3 0.0
23/03:00pm 27.2 25.1 17.1 54 6.4 E 24 35 13 19 1016.4 1015.5 0.0
23/02:30pm 28.0 27.0 17.5 52 6.7 ENE 19 28 10 15 1016.4 1015.5 0.0
23/02:00pm 28.7 27.3 17.9 52 6.9 ENE 22 33 12 18 1016.6 1015.7 0.0
23/01:30pm 28.3 27.3 17.5 52 6.9 ENE 19 28 10 15 1017.1 1016.2 0.0
23/01:00pm 27.2 25.8 17.1 54 6.4 E 20 30 11 16 1017.6 1016.7 0.0
23/12:30pm 27.5 27.0 17.7 55 6.2 E 17 26 9 14 1018.2 1017.3 0.0
23/12:00pm 26.7 25.6 17.2 56 6.0 ENE 19 26 10 14 1018.8 1018.0 0.0
23/11:30am 26.3 24.9 17.1 57 5.8 ENE 20 28 11 15 1019.3 1018.5 0.0
23/11:00am 26.5 24.6 17.6 58 5.6 E 24 32 13 17 1019.8 1018.9 0.0
23/10:30am 25.7 24.1 17.4 60 5.2 E 22 35 12 19 1020.2 1019.3 0.0
23/10:00am 25.2 23.7 17.7 63 4.7 ESE 22 35 12 19 1020.2 1019.3 0.0
23/09:30am 24.4 22.8 17.4 65 4.4 ESE 22 32 12 17 1020.3 1019.4 0.0
23/09:00am 23.9 22.5 16.9 65 4.3 ESE 20 33 11 18 1020.3 1019.4 0.0
23/08:30am 23.3 23.7 17.3 69 3.7 SSE 11 17 6 9 1020.4 1019.5 0.0
23/08:00am 22.5 22.8 17.0 71 3.4 SSE 11 15 6 8 1020.2 1019.3 0.0
23/07:30am 21.9 23.1 17.3 75 2.9 S 7 11 4 6 1020.1 1019.2 0.0
23/07:00am 21.5 21.8 16.9 75 2.8 ESE 11 15 6 8 1019.9 1019.0 0.0
23/06:30am 20.9 22.0 16.5 76 2.7 SE 6 9 3 5 1019.4 1018.6 0.0

Other formats

Comma delimited format used in spreadsheet applications
http://www.bom.gov.au/fwo/IDQ60801/IDQ60801.94398.axf

JavaScript Object Notation format (JSON) in row-major order
http://www.bom.gov.au/fwo/IDQ60801/IDQ60801.94398.json

Data quality

Most of these data are generated automatically and are frequently updated. Quality checks on data are not normally performed. It is possible for incorrect values to appear. Refer to information at About Latest Weather Observations and please check the disclaimer before using these data.